Latest Weather Observations for Coldstream

IDV60901

Issued at 8:45 am EDT Thursday 23 October 2014 (issued every 10 minutes, with the page automatically refreshed every 10 minutes)

About weather observations | Map of Melbourne area stations | Latest observations for Melbourne area | Other Formats
Station Details ID: 086383 Name: COLDSTREAM Lat: -37.72 Lon: 145.41 Height: 83.0 m
Data from the previous 72 hours. | See also: Recent months at Coldstream
Date/Time
EDT
Tmp

°C
App
Tmp
°C
Dew
Point
°C
Rel
Hum
%
Delta-T

°C
Wind Press
QNH
hPa
Press
MSL
hPa
Rain
since
9 am
mm
Dir
 
Spd
km/h
Gust
km/h
Spd
kts
Gust
kts
23/08:30am 15.1 16.5 14.3 95 0.5 SSE 0 0 0 0 1020.2 1020.2 0.0
23/08:00am 14.6 15.9 14.1 97 0.3 CALM 0 4 0 2 1020.1 1020.1 0.0
23/07:30am 14.5 15.8 14.0 97 0.3 CALM 0 0 0 0 1020.0 1020.0 0.0
23/07:00am 14.5 15.7 13.7 95 0.4 CALM 0 0 0 0 1019.7 1019.7 0.0
23/06:30am 14.5 14.3 13.5 94 0.6 W 7 11 4 6 1019.5 1019.5 0.0
23/06:00am 14.6 13.9 13.3 92 0.7 WSW 9 13 5 7 1019.1 1019.1 0.0
23/05:30am 14.5 13.4 13.2 92 0.7 W 11 13 6 7 1018.9 1018.9 0.0
23/05:00am 14.5 13.5 13.4 93 0.6 W 11 15 6 8 1018.6 1018.6 0.0
23/04:30am 14.5 14.0 13.7 95 0.4 W 9 17 5 9 1018.3 1018.3 0.0
23/04:00am 14.1 14.1 13.6 97 0.3 NW 6 7 3 4 1018.1 1018.1 0.0
23/03:30am 13.7 13.4 13.2 97 0.3 N 7 9 4 5 1018.3 1018.3 0.0
23/03:00am 13.5 13.1 12.9 96 0.3 NNW 7 9 4 5 1018.6 1018.6 0.0
23/02:30am 13.4 12.2 12.8 96 0.3 W 11 15 6 8 1018.7 1018.7 0.0
23/02:00am 13.3 12.7 12.4 94 0.5 W 7 9 4 5 1018.9 1018.9 0.0
23/01:30am 14.1 14.6 12.7 91 0.8 N 2 7 1 4 1019.1 1019.1 0.0
23/01:00am 15.1 15.8 13.3 89 1.0 N 2 7 1 4 1018.8 1018.8 0.0
23/12:30am 15.4 14.8 13.4 88 1.1 WSW 9 20 5 11 1018.8 1018.8 0.0
23/12:00am 15.6 14.2 13.3 86 1.3 W 13 20 7 11 1018.7 1018.7 0.0
 
Date/Time
EDT
Tmp

°C
App
Tmp
°C
Dew
Point
°C
Rel
Hum
%
Delta-T

°C
Wind Press
QNH
hPa
Press
MSL
hPa
Rain
since
9 am
mm
Dir
 
Spd
km/h
Gust
km/h
Spd
kts
Gust
kts
22/11:30pm 17.0 14.3 12.9 77 2.3 WSW 19 28 10 15 1018.1 1018.1 0.0
22/11:00pm 18.5 16.4 13.6 73 2.8 W 17 24 9 13 1017.9 1017.9 0.0
22/10:30pm 18.9 21.1 16.5 86 1.4 CALM 0 0 0 0 1017.7 1017.7 0.0
22/10:00pm 19.1 21.5 16.9 87 1.3 CALM 0 2 0 1 1017.6 1017.6 0.0
22/09:30pm 18.6 20.5 16.6 88 1.2 S 2 7 1 4 1017.3 1017.3 0.0
22/09:00pm 18.9 19.7 16.3 85 1.6 SSW 7 11 4 6 1016.4 1016.4 0.0
22/08:30pm 18.9 20.7 15.6 81 2.0 CALM 0 0 0 0 1015.8 1015.8 0.0
22/08:00pm 21.0 22.7 15.1 69 3.5 CALM 0 6 0 3 1015.4 1015.4 0.0
22/07:30pm 24.7 25.4 15.6 57 5.5 NNE 6 9 3 5 1015.0 1015.0 0.0
22/07:00pm 25.7 26.7 16.3 56 5.8 NNE 6 11 3 6 1014.8 1014.8 0.0
22/06:30pm 26.6 27.2 15.9 51 6.6 NNE 7 13 4 7 1015.0 1015.0 0.0
22/06:00pm 27.2 27.3 15.6 49 7.1 NNE 9 13 5 7 1015.3 1015.3 0.0
22/05:30pm 27.6 28.7 15.6 48 7.4 NNE 4 9 2 5 1015.2 1015.2 0.0
22/05:00pm 26.5 26.6 16.4 53 6.2 N 11 15 6 8 1015.4 1015.4 0.0
22/04:30pm 27.7 26.7 14.7 45 7.9 N 13 20 7 11 1015.6 1015.6 0.0
22/04:00pm 28.6 26.7 14.1 41 8.7 N 17 22 9 12 1015.9 1015.9 0.0
22/03:30pm 29.0 27.2 14.4 41 8.8 N 17 22 9 12 1016.1 1016.1 0.0
22/03:00pm 28.9 28.0 16.8 48 7.6 N 17 26 9 14 1016.4 1016.4 0.0
22/02:30pm 28.1 25.9 14.3 42 8.3 N 19 26 10 14 1016.8 1016.8 0.0
22/02:00pm 28.1 26.8 14.7 44 8.1 N 15 22 8 12 1017.4 1017.4 0.0
22/01:30pm 27.3 24.7 12.1 39 8.8 N 17 24 9 13 1017.7 1017.7 0.0
22/01:00pm 26.6 24.6 15.0 49 7.0 N 19 28 10 15 1017.8 1017.8 0.0
22/12:30pm 25.9 23.7 14.4 49 6.9 N 19 30 10 16 1018.4 1018.4 0.0
22/12:00pm 25.2 22.5 13.4 48 6.9 N 20 30 11 16 1019.1 1019.1 0.0
22/11:30am 25.0 22.2 14.2 51 6.4 NNW 22 32 12 17 1019.6 1019.6 0.0
22/11:00am 24.3 21.6 13.5 51 6.3 N 20 28 11 15 1019.8 1019.8 0.0
22/10:30am 24.0 21.3 13.5 52 6.1 N 20 44 11 24 1019.9 1019.9 0.0
22/10:00am 23.4 21.8 12.7 51 6.1 NNE 13 22 7 12 1020.2 1020.2 0.0
22/09:30am 23.0 22.7 14.3 58 5.1 NNE 9 17 5 9 1020.3 1020.3 0.0
22/09:00am 21.5 20.8 13.2 59 4.8 N 9 19 5 10 1020.2 1020.2 0.0
22/08:30am 17.2 17.9 13.5 79 2.1 ESE 2 6 1 3 1020.2 1020.2 0.0
22/08:00am 14.1 14.9 13.8 98 0.2 SE 2 9 1 5 1020.6 1020.6 0.0
22/07:30am 11.4 11.8 11.2 99 0.1 CALM 0 0 0 0 1020.4 1020.4 0.0
22/07:00am 9.1 8.1 9.0 99 0.0 S 4 9 2 5 1020.4 1020.4 0.0
22/06:30am 8.2 7.4 8.1 99 0.0 SE 2 9 1 5 1020.5 1020.5 0.0
22/06:00am 9.3 8.8 9.2 99 0.0 SSW 2 7 1 4 1020.4 1020.4 0.0
22/05:30am 8.4 7.6 8.3 99 0.0 S 2 9 1 5 1020.2 1020.2 0.0
22/05:00am 8.3 7.9 8.2 99 0.0 CALM 0 0 0 0 1020.1 1020.1 0.0
22/04:30am 7.9 7.3 7.6 98 0.1 CALM 0 0 0 0 1020.2 1020.2 0.0
22/04:00am 8.8 8.5 8.7 99 0.0 CALM 0 0 0 0 1020.5 1020.5 0.0
22/03:30am 8.4 8.0 8.1 98 0.1 CALM 0 0 0 0 1020.7 1020.7 0.0
22/03:00am 9.3 8.8 9.2 99 0.0 N 2 6 1 3 1020.8 1020.8 0.0
22/02:30am 10.3 9.2 10.1 99 0.1 S 6 9 3 5 1021.0 1021.0 0.0
22/02:00am 9.8 8.4 9.5 98 0.1 S 7 9 4 5 1021.2 1021.2 0.0
22/01:30am 9.7 9.2 9.2 97 0.2 S 2 7 1 4 1021.6 1021.6 0.0
22/01:00am 10.1 10.0 9.5 96 0.3 CALM 0 0 0 0 1022.1 1022.1 0.0
22/12:30am 11.0 11.1 10.2 95 0.4 CALM 0 0 0 0 1022.6 1022.6 0.0
22/12:00am 11.8 12.2 11.2 96 0.3 CALM 0 2 0 1 1023.0 1023.0 0.0
 
Date/Time
EDT
Tmp

°C
App
Tmp
°C
Dew
Point
°C
Rel
Hum
%
Delta-T

°C
Wind Press
QNH
hPa
Press
MSL
hPa
Rain
since
9 am
mm
Dir
 
Spd
km/h
Gust
km/h
Spd
kts
Gust
kts
21/11:30pm 11.7 11.9 10.4 92 0.7 CALM 0 0 0 0 1023.1 1023.1 0.0
21/11:00pm 13.0 13.4 11.4 90 0.8 CALM 0 0 0 0 1023.2 1023.2 0.0
21/10:30pm 13.9 14.4 11.6 86 1.2 CALM 0 0 0 0 1023.3 1023.3 0.0
21/10:00pm 15.3 16.0 12.2 82 1.7 CALM 0 0 0 0 1023.4 1023.4 0.0
21/09:30pm 15.6 15.9 12.2 80 1.9 SE 2 9 1 5 1023.2 1023.2 0.0
21/09:00pm 17.0 16.4 12.3 74 2.6 SSE 7 9 4 5 1023.0 1023.0 0.0
21/08:30pm 17.8 17.0 12.9 73 2.8 SE 9 13 5 7 1022.8 1022.8 0.0
21/08:00pm 18.6 17.6 13.5 72 2.9 SE 11 15 6 8 1022.5 1022.5 0.0
21/07:30pm 20.2 21.2 13.2 64 4.0 CALM 0 0 0 0 1022.4 1022.4 0.0
21/07:00pm 23.4 23.5 14.4 57 5.3 N 7 9 4 5 1022.2 1022.2 0.0
21/06:30pm 24.7 23.7 12.3 46 7.1 N 9 13 5 7 1022.1 1022.1 0.0
21/06:00pm 25.7 24.6 11.8 42 7.9 N 9 13 5 7 1022.2 1022.2 0.0
21/05:30pm 26.2 24.9 10.0 36 9.0 N 7 11 4 6 1022.3 1022.3 0.0
21/05:00pm 26.1 25.9 10.3 37 8.8 N 2 7 1 4 1022.4 1022.4 0.0
21/04:30pm 26.0 25.3 11.4 40 8.3 NNE 6 15 3 8 1022.6 1022.6 0.0
21/04:00pm 26.1 25.5 11.8 41 8.2 NW 6 13 3 7 1023.0 1023.0 0.0
21/03:30pm 25.8 25.0 11.6 41 8.1 N 7 15 4 8 1023.3 1023.3 0.0
21/03:00pm 25.7 25.7 13.5 46 7.2 NW 6 17 3 9 1023.8 1023.8 0.0
21/02:30pm 24.8 25.3 12.7 47 7.0 N 2 9 1 5 1024.3 1024.4 0.0
21/02:00pm 24.2 23.4 12.8 49 6.6 NNE 9 17 5 9 1024.7 1024.8 0.0
21/01:30pm 24.0 23.8 12.9 50 6.4 N 6 9 3 5 1025.2 1025.3 0.0
21/01:00pm 22.8 22.4 13.0 54 5.6 ESE 7 13 4 7 1025.7 1025.8 0.0
21/12:30pm 21.9 20.8 11.9 53 5.6 NNE 9 15 5 8 1025.9 1026.0 0.0
21/12:00pm 21.1 20.9 11.7 55 5.2 ESE 4 9 2 5 1026.4 1026.5 0.0
21/11:30am 20.3 19.6 11.5 57 4.9 E 6 11 3 6 1026.9 1026.9 0.0
21/11:00am 18.8 18.0 9.8 56 4.8 E 4 7 2 4 1027.3 1027.3 0.0
21/10:30am 18.0 17.4 11.8 67 3.4 ENE 6 9 3 5 1027.5 1027.5 0.0
21/10:00am 16.1 15.9 10.4 69 3.0 E 2 7 1 4 1027.7 1027.7 0.0
21/09:30am 13.6 12.6 10.2 80 1.8 N 6 7 3 4 1027.8 1027.8 0.0
21/09:00am 11.2 9.8 8.9 86 1.1 NNE 6 9 3 5 1027.8 1027.8 0.0
21/08:30am 9.1 8.9 9.0 99 0.0 CALM 0 0 0 0 1027.8 1027.8 0.0
21/08:00am 7.4 6.8 7.3 99 0.0 CALM 0 0 0 0 1027.5 1027.5 0.0
21/07:30am 5.4 4.3 5.3 99 0.0 CALM 0 0 0 0 1027.3 1027.3 0.0
21/07:00am 3.4 2.0 3.3 99 0.0 CALM 0 0 0 0 1027.1 1027.1 0.0
21/06:30am 2.5 0.9 2.4 99 0.0 CALM 0 0 0 0 1026.9 1026.9 0.0
21/06:00am 3.2 1.7 3.1 99 0.0 CALM 0 0 0 0 1026.7 1026.7 0.0
21/05:30am 3.2 1.0 3.1 99 0.0 S 4 7 2 4 1026.4 1026.5 0.0
21/05:00am 3.0 1.1 2.9 99 0.0 S 2 6 1 3 1026.4 1026.5 0.0
21/04:30am 3.4 2.0 3.3 99 0.0 CALM 0 0 0 0 1026.7 1026.7 0.0
21/04:00am 2.9 1.3 2.5 97 0.2 CALM 0 0 0 0 1026.7 1026.7 0.0
21/03:30am 3.0 1.4 2.6 97 0.2 CALM 0 0 0 0 1026.7 1026.7 0.0
21/03:00am 3.3 1.7 2.7 96 0.2 CALM 0 0 0 0 1026.6 1026.6 0.0
21/02:30am 4.1 2.7 3.4 95 0.3 CALM 0 0 0 0 1026.6 1026.6 0.0
21/02:00am 4.8 3.5 4.1 95 0.3 CALM 0 0 0 0 1026.8 1026.8 0.0
21/01:30am 5.8 4.7 4.9 94 0.4 CALM 0 0 0 0 1027.1 1027.1 0.0
21/01:00am 6.3 3.8 4.9 91 0.6 E 7 9 4 5 1027.2 1027.2 0.0
21/12:30am 5.9 2.5 4.2 89 0.7 E 11 13 6 7 1027.3 1027.3 0.0
21/12:00am 7.6 4.9 5.6 87 0.9 E 9 13 5 7 1027.4 1027.4 0.0
 
Date/Time
EDT
Tmp

°C
App
Tmp
°C
Dew
Point
°C
Rel
Hum
%
Delta-T

°C
Wind Press
QNH
hPa
Press
MSL
hPa
Rain
since
9 am
mm
Dir
 
Spd
km/h
Gust
km/h
Spd
kts
Gust
kts
20/11:30pm 9.4 7.2 6.1 80 1.5 E 7 9 4 5 1027.4 1027.4 0.0
20/11:00pm 10.4 7.9 6.5 77 1.8 SE 9 15 5 8 1027.2 1027.2 0.0
20/10:30pm 11.1 7.9 6.8 75 2.0 SE 13 20 7 11 1027.2 1027.2 0.0
20/10:00pm 11.8 8.7 7.1 73 2.2 SSE 13 19 7 10 1027.2 1027.2 0.0
20/09:30pm 12.4 9.3 7.3 71 2.5 SSE 13 22 7 12 1027.1 1027.1 0.0
20/09:00pm 13.1 8.9 7.5 69 2.7 SSE 19 28 10 15 1026.7 1026.7 0.0
20/08:30pm 13.7 9.6 7.9 68 2.9 SSE 19 32 10 17 1026.1 1026.2 0.0
20/08:00pm 14.8 10.8 8.1 64 3.3 SSE 19 28 10 15 1026.0 1026.1 0.0
20/07:30pm 15.7 11.7 8.2 61 3.8 SSE 19 28 10 15 1025.8 1025.9 0.0
20/07:00pm 17.1 13.9 8.5 57 4.4 SSE 15 26 8 14 1025.6 1025.7 0.0
20/06:30pm 18.1 14.1 8.4 53 5.0 S 19 32 10 17 1025.7 1025.8 0.0
20/06:00pm 18.8 14.7 8.5 51 5.3 S 20 30 11 16 1025.8 1025.9 0.0
20/05:30pm 19.7 16.3 9.3 51 5.5 S 17 26 9 14 1025.8 1025.9 0.0
20/05:00pm 19.9 16.4 8.6 48 5.9 S 17 28 9 15 1025.8 1025.9 0.0
20/04:30pm 19.8 15.9 8.5 48 5.9 S 19 26 10 14 1025.9 1026.0 0.0
20/04:00pm 20.0 15.9 8.0 46 6.2 S 19 28 10 15 1026.0 1026.1 0.0
20/03:30pm 19.4 15.1 7.8 47 6.0 SSE 20 28 11 15 1026.4 1026.5 0.0
20/03:00pm 19.5 15.7 7.6 46 6.1 SSE 17 26 9 14 1026.7 1026.7 0.0
20/02:30pm 19.2 15.1 7.9 48 5.8 S 19 26 10 14 1027.0 1027.0 0.0
20/02:00pm 18.9 15.4 8.6 51 5.3 SSE 17 26 9 14 1027.4 1027.4 0.0
20/01:30pm 18.4 15.5 8.1 51 5.3 SSE 13 20 7 11 1027.6 1027.6 0.0
20/01:00pm 17.7 14.5 6.9 49 5.4 S 13 22 7 12 1027.8 1027.8 0.0
20/12:30pm 17.2 13.0 7.3 52 5.0 S 19 28 10 15 1028.2 1028.2 0.0
20/12:00pm 16.2 11.8 6.6 53 4.7 S 19 30 10 16 1028.5 1028.5 0.0
20/11:30am 15.5 10.8 6.2 54 4.5 SSE 20 30 11 16 1028.8 1028.8 0.0
20/11:00am 15.5 11.4 8.0 61 3.8 S 19 28 10 15 1029.0 1029.0 0.0
20/10:30am 14.5 9.5 6.6 59 3.8 SSE 22 32 12 17 1029.3 1029.3 0.0
20/10:00am 13.7 9.2 6.3 61 3.5 SSE 19 30 10 16 1029.5 1029.5 0.0
20/09:30am 12.7 8.5 5.8 63 3.3 SSE 17 30 9 16 1029.6 1029.6 0.0
20/09:00am 12.2 7.6 5.8 65 3.0 SSE 19 32 10 17 1029.4 1029.4 0.0

Latest Capital City Observations: Canberra | Sydney | Melbourne | Brisbane | Adelaide | Perth | Hobart | Darwin

Other Formats:

Comma delimited format used in spreadsheet applications
http://www.bom.gov.au/fwo/IDV60901/IDV60901.94864.axf

JavaScript Object Notation format (JSON) in row-major order
http://www.bom.gov.au/fwo/IDV60901/IDV60901.94864.json